sensor_id;sensor_type;location;lat;lon;timestamp;pressure;altitude;pressure_sealevel;temperature;humidity
49915;BME280;35806;47.958;13.158;2024-01-06T00:01:36;93376.09;;;5.36;49.60
49915;BME280;35806;47.958;13.158;2024-01-06T00:04:04;93377.63;;;4.47;50.53
49915;BME280;35806;47.958;13.158;2024-01-06T00:06:33;93380.36;;;4.37;50.45
49915;BME280;35806;47.958;13.158;2024-01-06T00:09:01;93382.34;;;4.63;50.17
49915;BME280;35806;47.958;13.158;2024-01-06T00:11:29;93381.35;;;4.89;50.70
49915;BME280;35806;47.958;13.158;2024-01-06T00:13:56;93375.30;;;4.85;50.15
49915;BME280;35806;47.958;13.158;2024-01-06T00:16:23;93375.23;;;4.57;50.48
49915;BME280;35806;47.958;13.158;2024-01-06T00:18:51;93379.52;;;5.00;50.10
49915;BME280;35806;47.958;13.158;2024-01-06T00:21:18;93380.63;;;4.28;50.60
49915;BME280;35806;47.958;13.158;2024-01-06T00:23:46;93379.67;;;4.23;50.92
49915;BME280;35806;47.958;13.158;2024-01-06T00:26:13;93378.71;;;4.74;51.38
49915;BME280;35806;47.958;13.158;2024-01-06T00:28:41;93378.09;;;4.50;51.68
49915;BME280;35806;47.958;13.158;2024-01-06T00:31:08;93376.98;;;4.71;51.59
49915;BME280;35806;47.958;13.158;2024-01-06T00:33:36;93379.05;;;4.75;51.83
49915;BME280;35806;47.958;13.158;2024-01-06T00:36:06;93379.29;;;4.96;51.74
49915;BME280;35806;47.958;13.158;2024-01-06T00:38:34;93379.45;;;4.96;51.98
49915;BME280;35806;47.958;13.158;2024-01-06T00:41:02;93377.24;;;4.87;52.30
49915;BME280;35806;47.958;13.158;2024-01-06T00:43:29;93377.49;;;4.98;52.17
49915;BME280;35806;47.958;13.158;2024-01-06T00:45:56;93376.26;;;5.36;50.11
49915;BME280;35806;47.958;13.158;2024-01-06T00:48:24;93380.01;;;4.57;50.28
49915;BME280;35806;47.958;13.158;2024-01-06T00:50:51;93380.92;;;4.91;50.43
49915;BME280;35806;47.958;13.158;2024-01-06T00:53:19;93384.47;;;4.07;52.13
49915;BME280;35806;47.958;13.158;2024-01-06T00:55:47;93381.77;;;4.83;50.60
49915;BME280;35806;47.958;13.158;2024-01-06T00:58:14;93379.14;;;4.13;52.29
49915;BME280;35806;47.958;13.158;2024-01-06T01:00:42;93379.72;;;4.55;51.83
49915;BME280;35806;47.958;13.158;2024-01-06T01:03:10;93378.68;;;4.60;52.68
49915;BME280;35806;47.958;13.158;2024-01-06T01:05:37;93381.51;;;4.59;52.42
49915;BME280;35806;47.958;13.158;2024-01-06T01:08:05;93382.61;;;4.45;52.67
49915;BME280;35806;47.958;13.158;2024-01-06T01:10:33;93380.10;;;4.22;53.24
49915;BME280;35806;47.958;13.158;2024-01-06T01:13:00;93383.49;;;3.78;54.45
49915;BME280;35806;47.958;13.158;2024-01-06T01:15:28;93388.46;;;4.18;53.94
49915;BME280;35806;47.958;13.158;2024-01-06T01:17:55;93385.71;;;4.08;53.91
49915;BME280;35806;47.958;13.158;2024-01-06T01:20:23;93386.51;;;4.74;54.01
49915;BME280;35806;47.958;13.158;2024-01-06T01:22:50;93385.82;;;4.27;54.90
49915;BME280;35806;47.958;13.158;2024-01-06T01:25:18;93382.78;;;4.36;54.72
49915;BME280;35806;47.958;13.158;2024-01-06T01:27:45;93382.00;;;4.59;54.06
49915;BME280;35806;47.958;13.158;2024-01-06T01:30:12;93379.41;;;4.43;54.38
49915;BME280;35806;47.958;13.158;2024-01-06T01:32:40;93378.20;;;4.34;54.64
49915;BME280;35806;47.958;13.158;2024-01-06T01:35:08;93379.60;;;4.30;54.81
49915;BME280;35806;47.958;13.158;2024-01-06T01:37:36;93384.34;;;3.99;54.48
49915;BME280;35806;47.958;13.158;2024-01-06T01:40:05;93386.49;;;4.03;54.49
49915;BME280;35806;47.958;13.158;2024-01-06T01:42:34;93387.40;;;3.76;54.60
49915;BME280;35806;47.958;13.158;2024-01-06T01:45:02;93387.38;;;3.89;55.04
49915;BME280;35806;47.958;13.158;2024-01-06T01:47:39;93387.52;;;4.09;54.66
49915;BME280;35806;47.958;13.158;2024-01-06T01:50:07;93386.65;;;4.59;53.51
49915;BME280;35806;47.958;13.158;2024-01-06T01:52:36;93385.98;;;3.63;55.71
49915;BME280;35806;47.958;13.158;2024-01-06T01:55:04;93385.77;;;4.67;53.49
49915;BME280;35806;47.958;13.158;2024-01-06T01:57:31;93384.85;;;4.06;54.75
49915;BME280;35806;47.958;13.158;2024-01-06T02:00:00;93381.77;;;4.22;54.42
49915;BME280;35806;47.958;13.158;2024-01-06T02:02:28;93373.61;;;4.10;54.39
49915;BME280;35806;47.958;13.158;2024-01-06T02:04:56;93369.10;;;3.94;53.89
49915;BME280;35806;47.958;13.158;2024-01-06T02:07:28;93372.55;;;4.34;53.45
49915;BME280;35806;47.958;13.158;2024-01-06T02:09:55;93373.59;;;3.86;54.51
49915;BME280;35806;47.958;13.158;2024-01-06T02:12:23;93373.53;;;3.90;54.47
49915;BME280;35806;47.958;13.158;2024-01-06T02:14:51;93375.66;;;4.09;54.42
49915;BME280;35806;47.958;13.158;2024-01-06T02:17:19;93377.23;;;4.17;54.35
49915;BME280;35806;47.958;13.158;2024-01-06T02:19:47;93378.84;;;4.28;53.01
49915;BME280;35806;47.958;13.158;2024-01-06T02:22:15;93374.18;;;4.17;53.82
49915;BME280;35806;47.958;13.158;2024-01-06T02:24:42;93366.94;;;4.44;53.35
49915;BME280;35806;47.958;13.158;2024-01-06T02:27:09;93362.74;;;4.11;54.53
49915;BME280;35806;47.958;13.158;2024-01-06T02:29:44;93362.40;;;3.39;56.38
49915;BME280;35806;47.958;13.158;2024-01-06T02:32:10;93358.45;;;3.91;55.95
49915;BME280;35806;47.958;13.158;2024-01-06T02:34:38;93359.44;;;3.35;57.45
49915;BME280;35806;47.958;13.158;2024-01-06T02:37:05;93354.11;;;4.10;55.24
49915;BME280;35806;47.958;13.158;2024-01-06T02:39:31;93353.26;;;3.74;56.83
49915;BME280;35806;47.958;13.158;2024-01-06T02:41:59;93353.08;;;4.01;56.52
49915;BME280;35806;47.958;13.158;2024-01-06T02:44:26;93352.40;;;4.38;55.95
49915;BME280;35806;47.958;13.158;2024-01-06T02:46:54;93350.23;;;4.49;56.00
49915;BME280;35806;47.958;13.158;2024-01-06T02:49:21;93350.83;;;4.72;55.62
49915;BME280;35806;47.958;13.158;2024-01-06T02:51:49;93349.59;;;4.60;56.25
49915;BME280;35806;47.958;13.158;2024-01-06T02:54:17;93349.68;;;4.96;55.75
49915;BME280;35806;47.958;13.158;2024-01-06T02:56:44;93345.79;;;4.81;55.58
49915;BME280;35806;47.958;13.158;2024-01-06T02:59:12;93339.94;;;4.56;55.98
49915;BME280;35806;47.958;13.158;2024-01-06T03:01:49;93337.27;;;4.45;56.15
49915;BME280;35806;47.958;13.158;2024-01-06T03:04:16;93335.20;;;4.84;56.60
49915;BME280;35806;47.958;13.158;2024-01-06T03:06:43;93333.84;;;4.71;57.03
49915;BME280;35806;47.958;13.158;2024-01-06T03:09:09;93332.56;;;4.51;57.69
49915;BME280;35806;47.958;13.158;2024-01-06T03:11:37;93330.93;;;4.53;57.85
49915;BME280;35806;47.958;13.158;2024-01-06T03:14:04;93338.01;;;3.60;60.25
49915;BME280;35806;47.958;13.158;2024-01-06T03:16:31;93337.90;;;3.45;60.14
49915;BME280;35806;47.958;13.158;2024-01-06T03:18:58;93333.53;;;4.01;59.44
49915;BME280;35806;47.958;13.158;2024-01-06T03:21:26;93336.29;;;4.05;59.15
49915;BME280;35806;47.958;13.158;2024-01-06T03:23:54;93339.44;;;4.20;58.77
49915;BME280;35806;47.958;13.158;2024-01-06T03:26:22;93344.56;;;4.25;58.65
49915;BME280;35806;47.958;13.158;2024-01-06T03:28:50;93344.07;;;4.38;58.65
49915;BME280;35806;47.958;13.158;2024-01-06T03:31:17;93344.30;;;4.32;58.81
49915;BME280;35806;47.958;13.158;2024-01-06T03:33:55;93347.54;;;4.88;57.74
49915;BME280;35806;47.958;13.158;2024-01-06T03:36:22;93350.06;;;4.50;57.97
49915;BME280;35806;47.958;13.158;2024-01-06T03:38:49;93346.82;;;4.75;57.15
49915;BME280;35806;47.958;13.158;2024-01-06T03:41:17;93345.56;;;3.78;59.63
49915;BME280;35806;47.958;13.158;2024-01-06T03:43:49;93344.81;;;4.70;57.51
49915;BME280;35806;47.958;13.158;2024-01-06T03:46:17;93347.25;;;4.27;58.46
49915;BME280;35806;47.958;13.158;2024-01-06T03:48:54;93347.75;;;3.60;60.58
49915;BME280;35806;47.958;13.158;2024-01-06T03:51:23;93345.24;;;3.71;60.89
49915;BME280;35806;47.958;13.158;2024-01-06T03:53:56;93345.35;;;2.73;62.98
49915;BME280;35806;47.958;13.158;2024-01-06T03:56:24;93355.29;;;1.97;66.14
49915;BME280;35806;47.958;13.158;2024-01-06T03:58:51;93353.31;;;2.36;65.49
49915;BME280;35806;47.958;13.158;2024-01-06T04:01:30;93355.81;;;1.71;65.90
49915;BME280;35806;47.958;13.158;2024-01-06T04:03:57;93353.79;;;2.53;65.58
49915;BME280;35806;47.958;13.158;2024-01-06T04:06:24;93355.46;;;2.59;64.25
49915;BME280;35806;47.958;13.158;2024-01-06T04:08:52;93359.76;;;2.76;63.60
49915;BME280;35806;47.958;13.158;2024-01-06T04:11:24;93364.32;;;2.20;65.10
49915;BME280;35806;47.958;13.158;2024-01-06T04:13:51;93361.39;;;3.02;63.34
49915;BME280;35806;47.958;13.158;2024-01-06T04:16:19;93362.69;;;3.58;62.20
49915;BME280;35806;47.958;13.158;2024-01-06T04:18:46;93368.80;;;3.46;61.90
49915;BME280;35806;47.958;13.158;2024-01-06T04:21:29;93370.14;;;3.66;61.85
49915;BME280;35806;47.958;13.158;2024-01-06T04:24:03;93371.11;;;3.83;60.25
49915;BME280;35806;47.958;13.158;2024-01-06T04:26:31;93374.63;;;3.84;60.25
49915;BME280;35806;47.958;13.158;2024-01-06T04:29:03;93379.94;;;3.86;60.46
49915;BME280;35806;47.958;13.158;2024-01-06T04:31:35;93381.28;;;3.83;60.16
49915;BME280;35806;47.958;13.158;2024-01-06T04:34:02;93386.21;;;3.34;60.90
49915;BME280;35806;47.958;13.158;2024-01-06T04:36:35;93392.90;;;3.35;60.79
49915;BME280;35806;47.958;13.158;2024-01-06T04:39:02;93396.07;;;3.27;60.51
49915;BME280;35806;47.958;13.158;2024-01-06T04:41:30;93401.68;;;3.15;61.31
49915;BME280;35806;47.958;13.158;2024-01-06T04:44:02;93407.42;;;3.62;61.01
49915;BME280;35806;47.958;13.158;2024-01-06T04:46:29;93408.02;;;3.10;61.10
49915;BME280;35806;47.958;13.158;2024-01-06T04:48:57;93407.94;;;3.26;60.83
49915;BME280;35806;47.958;13.158;2024-01-06T04:51:24;93412.05;;;3.17;60.97
49915;BME280;35806;47.958;13.158;2024-01-06T04:53:52;93414.77;;;3.27;61.08
49915;BME280;35806;47.958;13.158;2024-01-06T04:56:19;93420.74;;;3.27;61.12
49915;BME280;35806;47.958;13.158;2024-01-06T04:58:46;93419.14;;;3.70;60.51
49915;BME280;35806;47.958;13.158;2024-01-06T05:01:14;93419.61;;;3.62;60.64
49915;BME280;35806;47.958;13.158;2024-01-06T05:03:42;93424.80;;;3.64;60.83
49915;BME280;35806;47.958;13.158;2024-01-06T05:06:09;93431.13;;;3.61;60.70
49915;BME280;35806;47.958;13.158;2024-01-06T05:08:37;93432.10;;;3.70;60.32
49915;BME280;35806;47.958;13.158;2024-01-06T05:11:05;93433.59;;;3.93;60.05
49915;BME280;35806;47.958;13.158;2024-01-06T05:13:32;93433.22;;;3.80;59.76
49915;BME280;35806;47.958;13.158;2024-01-06T05:16:05;93438.11;;;3.96;60.55
49915;BME280;35806;47.958;13.158;2024-01-06T05:18:32;93438.87;;;3.25;60.98
49915;BME280;35806;47.958;13.158;2024-01-06T05:20:59;93441.28;;;3.78;60.21
49915;BME280;35806;47.958;13.158;2024-01-06T05:23:27;93442.43;;;3.69;60.73
49915;BME280;35806;47.958;13.158;2024-01-06T05:25:55;93445.40;;;3.81;60.66
49915;BME280;35806;47.958;13.158;2024-01-06T05:28:22;93445.51;;;3.38;60.97
49915;BME280;35806;47.958;13.158;2024-01-06T05:30:50;93448.15;;;3.96;60.20
49915;BME280;35806;47.958;13.158;2024-01-06T05:33:17;93447.68;;;3.93;60.14
49915;BME280;35806;47.958;13.158;2024-01-06T05:35:45;93450.12;;;3.41;60.53
49915;BME280;35806;47.958;13.158;2024-01-06T05:38:12;93453.39;;;3.53;60.54
49915;BME280;35806;47.958;13.158;2024-01-06T05:40:40;93455.10;;;3.78;60.57
49915;BME280;35806;47.958;13.158;2024-01-06T05:43:07;93458.51;;;3.70;60.90
49915;BME280;35806;47.958;13.158;2024-01-06T05:45:34;93461.83;;;3.48;61.12
49915;BME280;35806;47.958;13.158;2024-01-06T05:48:02;93471.55;;;3.63;61.61
49915;BME280;35806;47.958;13.158;2024-01-06T05:50:30;93469.99;;;3.41;61.70
49915;BME280;35806;47.958;13.158;2024-01-06T05:52:57;93474.50;;;3.49;61.31
49915;BME280;35806;47.958;13.158;2024-01-06T05:55:24;93476.20;;;3.23;61.49
49915;BME280;35806;47.958;13.158;2024-01-06T05:57:52;93478.76;;;3.66;61.47
49915;BME280;35806;47.958;13.158;2024-01-06T06:00:20;93485.42;;;3.63;61.51
49915;BME280;35806;47.958;13.158;2024-01-06T06:02:47;93488.20;;;3.74;61.12
49915;BME280;35806;47.958;13.158;2024-01-06T06:05:14;93492.20;;;3.34;61.53
49915;BME280;35806;47.958;13.158;2024-01-06T06:07:41;93491.68;;;3.56;61.18
49915;BME280;35806;47.958;13.158;2024-01-06T06:10:11;93498.50;;;3.56;61.64
49915;BME280;35806;47.958;13.158;2024-01-06T06:12:39;93502.63;;;3.40;61.53
49915;BME280;35806;47.958;13.158;2024-01-06T06:15:07;93507.42;;;3.52;61.58
49915;BME280;35806;47.958;13.158;2024-01-06T06:17:35;93509.35;;;3.33;61.56
49915;BME280;35806;47.958;13.158;2024-01-06T06:20:02;93509.82;;;3.49;61.85
49915;BME280;35806;47.958;13.158;2024-01-06T06:22:29;93511.41;;;3.20;61.62
49915;BME280;35806;47.958;13.158;2024-01-06T06:24:57;93515.30;;;3.08;61.81
49915;BME280;35806;47.958;13.158;2024-01-06T06:27:25;93518.05;;;2.78;62.09
49915;BME280;35806;47.958;13.158;2024-01-06T06:29:53;93516.63;;;3.39;61.95
49915;BME280;35806;47.958;13.158;2024-01-06T06:32:20;93522.76;;;3.47;61.63
49915;BME280;35806;47.958;13.158;2024-01-06T06:34:48;93526.35;;;3.51;61.35
49915;BME280;35806;47.958;13.158;2024-01-06T06:37:15;93529.68;;;3.28;61.74
49915;BME280;35806;47.958;13.158;2024-01-06T06:39:42;93535.19;;;3.33;61.84
49915;BME280;35806;47.958;13.158;2024-01-06T06:42:09;93534.23;;;3.37;61.82
49915;BME280;35806;47.958;13.158;2024-01-06T06:44:36;93536.29;;;3.77;61.16
49915;BME280;35806;47.958;13.158;2024-01-06T06:47:04;93538.45;;;3.60;61.38
49915;BME280;35806;47.958;13.158;2024-01-06T06:49:31;93545.43;;;3.22;61.91
49915;BME280;35806;47.958;13.158;2024-01-06T06:51:58;93547.80;;;3.20;62.01
49915;BME280;35806;47.958;13.158;2024-01-06T06:54:25;93548.40;;;3.56;61.83
49915;BME280;35806;47.958;13.158;2024-01-06T06:56:52;93553.75;;;3.43;61.80
49915;BME280;35806;47.958;13.158;2024-01-06T06:59:20;93558.27;;;3.57;61.89
49915;BME280;35806;47.958;13.158;2024-01-06T07:01:47;93559.42;;;3.48;61.71
49915;BME280;35806;47.958;13.158;2024-01-06T07:04:14;93558.54;;;3.74;61.54
49915;BME280;35806;47.958;13.158;2024-01-06T07:06:41;93561.67;;;3.76;61.35
49915;BME280;35806;47.958;13.158;2024-01-06T07:09:09;93561.11;;;3.32;61.65
49915;BME280;35806;47.958;13.158;2024-01-06T07:11:37;93566.13;;;3.72;61.78
49915;BME280;35806;47.958;13.158;2024-01-06T07:14:04;93569.43;;;3.38;61.55
49915;BME280;35806;47.958;13.158;2024-01-06T07:16:31;93573.28;;;3.66;61.65
49915;BME280;35806;47.958;13.158;2024-01-06T07:18:58;93576.01;;;3.20;62.48
49915;BME280;35806;47.958;13.158;2024-01-06T07:21:26;93578.75;;;2.79;63.33
49915;BME280;35806;47.958;13.158;2024-01-06T07:23:53;93582.00;;;3.14;62.72
49915;BME280;35806;47.958;13.158;2024-01-06T07:26:21;93583.27;;;3.49;62.72
49915;BME280;35806;47.958;13.158;2024-01-06T07:28:48;93586.40;;;3.28;62.64
49915;BME280;35806;47.958;13.158;2024-01-06T07:31:15;93592.18;;;3.38;62.67
49915;BME280;35806;47.958;13.158;2024-01-06T07:33:42;93595.04;;;3.40;62.64
49915;BME280;35806;47.958;13.158;2024-01-06T07:36:10;93597.71;;;3.55;62.56
49915;BME280;35806;47.958;13.158;2024-01-06T07:38:37;93597.99;;;3.47;62.41
49915;BME280;35806;47.958;13.158;2024-01-06T07:41:06;93598.84;;;3.69;61.90
49915;BME280;35806;47.958;13.158;2024-01-06T07:43:33;93600.07;;;4.05;60.64
49915;BME280;35806;47.958;13.158;2024-01-06T07:46:00;93602.03;;;3.59;62.00
49915;BME280;35806;47.958;13.158;2024-01-06T07:48:28;93603.64;;;3.56;62.02
49915;BME280;35806;47.958;13.158;2024-01-06T07:50:55;93606.28;;;3.48;62.15
49915;BME280;35806;47.958;13.158;2024-01-06T07:53:23;93604.72;;;4.11;61.22
49915;BME280;35806;47.958;13.158;2024-01-06T07:55:51;93608.59;;;3.83;62.14
49915;BME280;35806;47.958;13.158;2024-01-06T07:58:18;93608.88;;;3.73;61.40
49915;BME280;35806;47.958;13.158;2024-01-06T08:00:45;93616.12;;;3.57;61.56
49915;BME280;35806;47.958;13.158;2024-01-06T08:03:13;93618.21;;;3.66;62.32
49915;BME280;35806;47.958;13.158;2024-01-06T08:05:40;93620.53;;;3.88;62.73
49915;BME280;35806;47.958;13.158;2024-01-06T08:08:08;93624.75;;;3.75;62.74
49915;BME280;35806;47.958;13.158;2024-01-06T08:10:35;93628.79;;;3.73;63.29
49915;BME280;35806;47.958;13.158;2024-01-06T08:13:02;93628.83;;;3.86;62.65
49915;BME280;35806;47.958;13.158;2024-01-06T08:15:30;93629.13;;;3.03;64.12
49915;BME280;35806;47.958;13.158;2024-01-06T08:18:02;93627.74;;;3.82;62.98
49915;BME280;35806;47.958;13.158;2024-01-06T08:20:29;93631.93;;;2.58;64.83
49915;BME280;35806;47.958;13.158;2024-01-06T08:22:56;93632.15;;;2.44;65.84
49915;BME280;35806;47.958;13.158;2024-01-06T08:25:24;93636.81;;;3.19;64.47
49915;BME280;35806;47.958;13.158;2024-01-06T08:27:51;93638.56;;;3.51;63.50
49915;BME280;35806;47.958;13.158;2024-01-06T08:30:19;93640.97;;;2.95;65.60
49915;BME280;35806;47.958;13.158;2024-01-06T08:32:46;93641.52;;;2.85;65.76
49915;BME280;35806;47.958;13.158;2024-01-06T08:35:14;93641.06;;;2.66;66.30
49915;BME280;35806;47.958;13.158;2024-01-06T08:37:42;93644.00;;;2.48;67.34
49915;BME280;35806;47.958;13.158;2024-01-06T08:40:10;93648.58;;;2.56;67.70
49915;BME280;35806;47.958;13.158;2024-01-06T08:42:37;93650.78;;;2.23;68.64
49915;BME280;35806;47.958;13.158;2024-01-06T08:45:05;93655.71;;;2.57;67.39
49915;BME280;35806;47.958;13.158;2024-01-06T08:47:32;93658.42;;;2.54;66.90
49915;BME280;35806;47.958;13.158;2024-01-06T08:50:00;93664.21;;;2.08;68.60
49915;BME280;35806;47.958;13.158;2024-01-06T08:52:26;93665.59;;;2.42;67.10
49915;BME280;35806;47.958;13.158;2024-01-06T08:54:53;93666.91;;;2.47;66.91
49915;BME280;35806;47.958;13.158;2024-01-06T08:57:20;93666.08;;;2.66;66.74
49915;BME280;35806;47.958;13.158;2024-01-06T08:59:48;93665.92;;;2.30;66.50
49915;BME280;35806;47.958;13.158;2024-01-06T09:02:16;93668.78;;;2.32;67.32
49915;BME280;35806;47.958;13.158;2024-01-06T09:04:43;93673.23;;;2.52;66.12
49915;BME280;35806;47.958;13.158;2024-01-06T09:07:11;93678.45;;;2.52;67.10
49915;BME280;35806;47.958;13.158;2024-01-06T09:09:39;93681.08;;;2.01;67.97
49915;BME280;35806;47.958;13.158;2024-01-06T09:12:07;93681.70;;;1.97;68.42
49915;BME280;35806;47.958;13.158;2024-01-06T09:14:34;93682.31;;;1.78;68.00
49915;BME280;35806;47.958;13.158;2024-01-06T09:17:01;93683.94;;;2.10;67.83
49915;BME280;35806;47.958;13.158;2024-01-06T09:19:29;93685.60;;;2.12;67.54
49915;BME280;35806;47.958;13.158;2024-01-06T09:21:56;93681.95;;;1.81;68.48
49915;BME280;35806;47.958;13.158;2024-01-06T09:24:24;93679.93;;;2.22;66.73
49915;BME280;35806;47.958;13.158;2024-01-06T09:26:51;93680.56;;;2.62;65.79
49915;BME280;35806;47.958;13.158;2024-01-06T09:29:19;93684.18;;;1.46;68.70
49915;BME280;35806;47.958;13.158;2024-01-06T09:31:47;93679.86;;;2.38;66.45
49915;BME280;35806;47.958;13.158;2024-01-06T09:34:14;93680.53;;;2.40;66.21
49915;BME280;35806;47.958;13.158;2024-01-06T09:36:41;93680.58;;;2.63;65.77
49915;BME280;35806;47.958;13.158;2024-01-06T09:39:08;93682.95;;;2.69;65.24
49915;BME280;35806;47.958;13.158;2024-01-06T09:41:36;93683.45;;;2.49;65.54
49915;BME280;35806;47.958;13.158;2024-01-06T09:44:04;93681.09;;;2.80;64.90
49915;BME280;35806;47.958;13.158;2024-01-06T09:46:31;93682.95;;;2.72;64.81
49915;BME280;35806;47.958;13.158;2024-01-06T09:48:59;93681.02;;;2.72;64.70
49915;BME280;35806;47.958;13.158;2024-01-06T09:51:26;93680.40;;;2.44;65.09
49915;BME280;35806;47.958;13.158;2024-01-06T09:53:57;93682.43;;;2.40;64.83
49915;BME280;35806;47.958;13.158;2024-01-06T09:56:26;93679.66;;;2.23;65.59
49915;BME280;35806;47.958;13.158;2024-01-06T09:58:53;93681.54;;;1.75;66.84
49915;BME280;35806;47.958;13.158;2024-01-06T10:01:21;93682.09;;;1.80;67.46
49915;BME280;35806;47.958;13.158;2024-01-06T10:03:49;93684.05;;;2.04;66.43
49915;BME280;35806;47.958;13.158;2024-01-06T10:06:16;93684.30;;;1.88;67.55
49915;BME280;35806;47.958;13.158;2024-01-06T10:08:47;93686.79;;;1.47;68.37
49915;BME280;35806;47.958;13.158;2024-01-06T10:11:15;93681.66;;;1.76;67.59
49915;BME280;35806;47.958;13.158;2024-01-06T10:13:42;93682.04;;;1.08;68.16
49915;BME280;35806;47.958;13.158;2024-01-06T10:16:10;93683.59;;;1.74;67.69
49915;BME280;35806;47.958;13.158;2024-01-06T10:18:37;93683.51;;;1.83;67.51
49915;BME280;35806;47.958;13.158;2024-01-06T10:21:05;93686.63;;;1.29;68.87
49915;BME280;35806;47.958;13.158;2024-01-06T10:23:33;93682.22;;;2.65;66.08
49915;BME280;35806;47.958;13.158;2024-01-06T10:26:00;93681.94;;;1.58;67.39
49915;BME280;35806;47.958;13.158;2024-01-06T10:28:27;93670.61;;;2.21;66.16
49915;BME280;35806;47.958;13.158;2024-01-06T10:30:54;93677.30;;;2.00;67.55
49915;BME280;35806;47.958;13.158;2024-01-06T10:33:23;93673.33;;;2.31;65.95
49915;BME280;35806;47.958;13.158;2024-01-06T10:35:53;93670.22;;;2.57;66.07
49915;BME280;35806;47.958;13.158;2024-01-06T10:38:20;93670.74;;;1.91;66.98
49915;BME280;35806;47.958;13.158;2024-01-06T10:41:04;93671.16;;;2.21;66.76
49915;BME280;35806;47.958;13.158;2024-01-06T10:43:33;93675.93;;;2.29;66.92
49915;BME280;35806;47.958;13.158;2024-01-06T10:46:01;93675.56;;;1.57;68.40
49915;BME280;35806;47.958;13.158;2024-01-06T10:48:31;93675.08;;;1.41;68.63
49915;BME280;35806;47.958;13.158;2024-01-06T10:50:59;93674.58;;;2.30;67.02
49915;BME280;35806;47.958;13.158;2024-01-06T10:53:27;93670.85;;;2.26;66.60
49915;BME280;35806;47.958;13.158;2024-01-06T10:55:56;93674.73;;;1.54;68.00
49915;BME280;35806;47.958;13.158;2024-01-06T10:58:24;93668.98;;;2.80;65.22
49915;BME280;35806;47.958;13.158;2024-01-06T11:00:51;93667.25;;;2.77;65.04
49915;BME280;35806;47.958;13.158;2024-01-06T11:03:19;93671.64;;;1.48;67.56
49915;BME280;35806;47.958;13.158;2024-01-06T11:05:48;93667.05;;;1.97;66.87
49915;BME280;35806;47.958;13.158;2024-01-06T11:08:17;93661.34;;;2.44;65.71
49915;BME280;35806;47.958;13.158;2024-01-06T11:10:45;93659.24;;;2.05;66.63
49915;BME280;35806;47.958;13.158;2024-01-06T11:13:14;93659.16;;;2.31;66.26
49915;BME280;35806;47.958;13.158;2024-01-06T11:15:43;93661.89;;;1.44;67.69
49915;BME280;35806;47.958;13.158;2024-01-06T11:18:32;93657.49;;;2.17;66.13
49915;BME280;35806;47.958;13.158;2024-01-06T11:21:17;93654.12;;;2.03;66.18
49915;BME280;35806;47.958;13.158;2024-01-06T11:23:45;93653.50;;;1.87;67.11
49915;BME280;35806;47.958;13.158;2024-01-06T11:26:14;93652.73;;;1.53;67.26
49915;BME280;35806;47.958;13.158;2024-01-06T11:28:44;93651.23;;;1.24;68.34
49915;BME280;35806;47.958;13.158;2024-01-06T11:31:12;93649.42;;;1.49;68.06
49915;BME280;35806;47.958;13.158;2024-01-06T11:33:55;93654.32;;;0.52;69.57
49915;BME280;35806;47.958;13.158;2024-01-06T11:36:33;93650.29;;;1.71;67.40
49915;BME280;35806;47.958;13.158;2024-01-06T11:39:08;93649.07;;;0.33;71.32
49915;BME280;35806;47.958;13.158;2024-01-06T11:42:00;93642.05;;;1.18;68.66
49915;BME280;35806;47.958;13.158;2024-01-06T11:44:28;93638.61;;;2.09;66.21
49915;BME280;35806;47.958;13.158;2024-01-06T11:47:49;93641.70;;;-0.84;73.43
49915;BME280;35806;47.958;13.158;2024-01-06T11:50:21;93639.01;;;0.37;72.36
49915;BME280;35806;47.958;13.158;2024-01-06T11:52:49;93639.40;;;1.14;69.43
49915;BME280;35806;47.958;13.158;2024-01-06T11:55:18;93637.94;;;0.90;69.48
49915;BME280;35806;47.958;13.158;2024-01-06T11:57:45;93636.82;;;0.69;71.08
49915;BME280;35806;47.958;13.158;2024-01-06T12:00:13;93632.55;;;1.38;69.52
49915;BME280;35806;47.958;13.158;2024-01-06T12:02:41;93634.80;;;1.73;68.55
49915;BME280;35806;47.958;13.158;2024-01-06T12:05:13;93639.33;;;-0.00;72.99
49915;BME280;35806;47.958;13.158;2024-01-06T12:07:41;93631.73;;;1.55;69.57
49915;BME280;35806;47.958;13.158;2024-01-06T12:10:09;93631.64;;;1.41;69.76
49915;BME280;35806;47.958;13.158;2024-01-06T12:12:37;93634.31;;;1.92;67.42
49915;BME280;35806;47.958;13.158;2024-01-06T12:15:06;93630.38;;;2.01;67.21
49915;BME280;35806;47.958;13.158;2024-01-06T12:17:33;93627.98;;;2.21;65.70
49915;BME280;35806;47.958;13.158;2024-01-06T12:20:01;93626.97;;;2.10;65.84
49915;BME280;35806;47.958;13.158;2024-01-06T12:22:29;93625.61;;;1.87;66.26
49915;BME280;35806;47.958;13.158;2024-01-06T12:24:59;93624.55;;;2.55;64.94
49915;BME280;35806;47.958;13.158;2024-01-06T12:27:26;93626.80;;;2.06;65.66
49915;BME280;35806;47.958;13.158;2024-01-06T12:29:53;93626.80;;;2.44;64.82
49915;BME280;35806;47.958;13.158;2024-01-06T12:32:21;93627.58;;;3.07;63.42
49915;BME280;35806;47.958;13.158;2024-01-06T12:34:49;93629.59;;;2.27;64.85
49915;BME280;35806;47.958;13.158;2024-01-06T12:37:16;93626.27;;;2.37;64.56
49915;BME280;35806;47.958;13.158;2024-01-06T12:39:47;93627.55;;;2.67;63.14
49915;BME280;35806;47.958;13.158;2024-01-06T12:42:15;93627.08;;;2.47;64.11
49915;BME280;35806;47.958;13.158;2024-01-06T12:44:43;93625.67;;;2.16;64.41
49915;BME280;35806;47.958;13.158;2024-01-06T12:47:10;93629.00;;;2.67;63.76
49915;BME280;35806;47.958;13.158;2024-01-06T12:49:38;93627.61;;;2.32;64.92
49915;BME280;35806;47.958;13.158;2024-01-06T12:52:06;93628.49;;;2.72;63.83
49915;BME280;35806;47.958;13.158;2024-01-06T12:54:33;93628.37;;;3.24;62.45
49915;BME280;35806;47.958;13.158;2024-01-06T12:57:01;93626.76;;;2.81;62.61
49915;BME280;35806;47.958;13.158;2024-01-06T12:59:29;93631.20;;;3.06;61.70
49915;BME280;35806;47.958;13.158;2024-01-06T13:02:01;93629.29;;;2.45;63.23
49915;BME280;35806;47.958;13.158;2024-01-06T13:04:29;93631.32;;;2.81;62.30
49915;BME280;35806;47.958;13.158;2024-01-06T13:06:57;93631.73;;;3.31;62.11